METAR Data
IDs: Format: Raw Decoded Include TAF

Data at: 0343 UTC 01 Feb 2023

METAR for:KHSE (Hatteras/Mitchell Fl, NC, US)
Text:KHSE 010330Z AUTO 36005KT 4SM BR OVC002 10/10 A3012 RMK AO2 T01000100 $
Temperature: 10.0°C ( 50°F)
Dewpoint: 10.0°C ( 50°F) [RH = 100%]
Pressure (altimeter):30.12 inches Hg (1020.1 mb)
Winds:from the N (360 degrees) at 6 MPH (5 knots; 2.6 m/s)
Visibility: 4 sm ( 6 km)
Ceiling:200 feet AGL
Clouds: overcast cloud deck at 200 feet AGL
Weather:BR (mist)
QC Flag:automated observation with no human augmentation; SOME DATA ABOVE MAY BE INACCURATE!!!"$" is an indication the sensor requires maintenance.
Text:KHSE 010322Z AUTO VRB06KT 2SM BR OVC002 10/10 A3012 RMK AO2 T01000100 $
Temperature: 10.0°C ( 50°F)
Dewpoint: 10.0°C ( 50°F) [RH = 100%]
Pressure (altimeter):30.12 inches Hg (1020.1 mb)
Winds:variable direction winds at 7 MPH (6 knots; 3.1 m/s)
Visibility: 2.00 sm ( 3.22 km)
Ceiling:200 feet AGL
Clouds: overcast cloud deck at 200 feet AGL
Weather:BR (mist)
QC Flag:automated observation with no human augmentation; SOME DATA ABOVE MAY BE INACCURATE!!!"$" is an indication the sensor requires maintenance.
Text:KHSE 010304Z AUTO 35008KT 310V020 1SM BR OVC002 10/10 A3012 RMK AO2 T01000100 $
Temperature: 10.0°C ( 50°F)
Dewpoint: 10.0°C ( 50°F) [RH = 100%]
Pressure (altimeter):30.12 inches Hg (1020.1 mb)
Winds:from the N (350 degrees) at 9 MPH (8 knots; 4.1 m/s)
Visibility: 1.00 sm ( 1.61 km)
Ceiling:200 feet AGL
Clouds: overcast cloud deck at 200 feet AGL
Weather:BR (mist)
QC Flag:automated observation with no human augmentation; SOME DATA ABOVE MAY BE INACCURATE!!!"$" is an indication the sensor requires maintenance.
Text:KHSE 010255Z AUTO VRB04KT 1 3/4SM BR OVC002 11/11 A3013 RMK AO2 T01060106 $
Temperature: 10.6°C ( 51°F)
Dewpoint: 10.6°C ( 51°F) [RH = 100%]
Pressure (altimeter):30.13 inches Hg (1020.4 mb)
Winds:variable direction winds at 5 MPH (4 knots; 2.1 m/s)
Visibility: 1.75 sm ( 2.82 km)
Ceiling:200 feet AGL
Clouds: overcast cloud deck at 200 feet AGL
Weather:BR (mist)
QC Flag:automated observation with no human augmentation; SOME DATA ABOVE MAY BE INACCURATE!!!"$" is an indication the sensor requires maintenance.
Text:KHSE 010251Z AUTO VRB05KT 3SM BR BKN002 OVC009 11/11 A3013 RMK AO2 SLP202 T01110111 $
Temperature: 11.1°C ( 52°F)
Dewpoint: 11.1°C ( 52°F) [RH = 100%]
Pressure (altimeter):30.13 inches Hg (1020.4 mb) [Sea level pressure: 1020.2 mb]
Winds:variable direction winds at 6 MPH (5 knots; 2.6 m/s)
Visibility: 3 sm ( 5 km)
Ceiling:200 feet AGL
Clouds: broken clouds at 200 feet AGL, overcast cloud deck at 900 feet AGL
Weather:BR (mist)
QC Flag:automated observation with no human augmentation; SOME DATA ABOVE MAY BE INACCURATE!!!"$" is an indication the sensor requires maintenance.
Text:KHSE 010243Z AUTO VRB04KT 10SM BKN004 OVC010 12/12 A3012 RMK AO2 T01170117 $
Temperature: 11.7°C ( 53°F)
Dewpoint: 11.7°C ( 53°F) [RH = 100%]
Pressure (altimeter):30.12 inches Hg (1020.1 mb)
Winds:variable direction winds at 5 MPH (4 knots; 2.1 m/s)
Visibility:10 or more sm (16+ km)
Ceiling:400 feet AGL
Clouds: broken clouds at 400 feet AGL, overcast cloud deck at 1000 feet AGL
QC Flag:automated observation with no human augmentation; SOME DATA ABOVE MAY BE INACCURATE!!!"$" is an indication the sensor requires maintenance.
Text:KHSE 010235Z AUTO VRB04KT 10SM SCT004 OVC010 12/12 A3012 RMK AO2 T01220122 $
Temperature: 12.2°C ( 54°F)
Dewpoint: 12.2°C ( 54°F) [RH = 100%]
Pressure (altimeter):30.12 inches Hg (1020.1 mb)
Winds:variable direction winds at 5 MPH (4 knots; 2.1 m/s)
Visibility:10 or more sm (16+ km)
Ceiling:1000 feet AGL
Clouds: scattered clouds at 400 feet AGL, overcast cloud deck at 1000 feet AGL
QC Flag:automated observation with no human augmentation; SOME DATA ABOVE MAY BE INACCURATE!!!"$" is an indication the sensor requires maintenance.
Text:KHSE 010151Z AUTO 14003KT 7SM OVC010 13/13 A3008 RMK AO2 SLP187 T01280128 $
Temperature: 12.8°C ( 55°F)
Dewpoint: 12.8°C ( 55°F) [RH = 100%]
Pressure (altimeter):30.08 inches Hg (1018.7 mb) [Sea level pressure: 1018.7 mb]
Winds:from the SE (140 degrees) at 3 MPH (3 knots; 1.5 m/s)
Visibility: 7 sm ( 11 km)
Ceiling:1000 feet AGL
Clouds: overcast cloud deck at 1000 feet AGL
QC Flag:automated observation with no human augmentation; SOME DATA ABOVE MAY BE INACCURATE!!!"$" is an indication the sensor requires maintenance.
Text:KHSE 010117Z AUTO 00000KT 10SM OVC012 12/12 A3009 RMK AO2 T01220122 $
Temperature: 12.2°C ( 54°F)
Dewpoint: 12.2°C ( 54°F) [RH = 100%]
Pressure (altimeter):30.09 inches Hg (1019.0 mb)
Winds:calm
Visibility:10 or more sm (16+ km)
Ceiling:1200 feet AGL
Clouds: overcast cloud deck at 1200 feet AGL
QC Flag:automated observation with no human augmentation; SOME DATA ABOVE MAY BE INACCURATE!!!"$" is an indication the sensor requires maintenance.
Text:KHSE 010051Z AUTO 34003KT 7SM 12/12 A3011 RMK AO2 SLP194 T01220122 $
Temperature: 12.2°C ( 54°F)
Dewpoint: 12.2°C ( 54°F) [RH = 100%]
Pressure (altimeter):30.11 inches Hg (1019.7 mb) [Sea level pressure: 1019.4 mb]
Winds:from the NNW (340 degrees) at 3 MPH (3 knots; 1.5 m/s)
Visibility: 7 sm ( 11 km)
QC Flag:automated observation with no human augmentation; SOME DATA ABOVE MAY BE INACCURATE!!!"$" is an indication the sensor requires maintenance.
Text:KHSE 010021Z AUTO VRB03KT 10SM SCT009 BKN016 OVC025 12/12 A3011 RMK AO2 T01170117
Temperature: 11.7°C ( 53°F)
Dewpoint: 11.7°C ( 53°F) [RH = 100%]
Pressure (altimeter):30.11 inches Hg (1019.7 mb)
Winds:variable direction winds at 3 MPH (3 knots; 1.5 m/s)
Visibility:10 or more sm (16+ km)
Ceiling:1600 feet AGL
Clouds: scattered clouds at 900 feet AGL, broken clouds at 1600 feet AGL, overcast cloud deck at 2500 feet AGL
QC Flag:automated observation with no human augmentation
Text:KHSE 010009Z AUTO VRB03KT 10SM BKN009 OVC017 12/12 A3010 RMK AO2 T01170117
Temperature: 11.7°C ( 53°F)
Dewpoint: 11.7°C ( 53°F) [RH = 100%]
Pressure (altimeter):30.10 inches Hg (1019.4 mb)
Winds:variable direction winds at 3 MPH (3 knots; 1.5 m/s)
Visibility:10 or more sm (16+ km)
Ceiling:900 feet AGL
Clouds: broken clouds at 900 feet AGL, overcast cloud deck at 1700 feet AGL
QC Flag:automated observation with no human augmentation
Text:KHSE 312351Z AUTO VRB03KT 10SM BKN010 OVC020 12/12 A3011 RMK AO2 RAB00E30 SLP197 P0001 60001 T01170117 10133 20117 56005
Temperature: 11.7°C ( 53°F)
Dewpoint: 11.7°C ( 53°F) [RH = 100%]
Pressure (altimeter):30.11 inches Hg (1019.7 mb) [Sea level pressure: 1019.7 mb]
Winds:variable direction winds at 3 MPH (3 knots; 1.5 m/s)
Visibility:10 or more sm (16+ km)
Ceiling:1000 feet AGL
Clouds: broken clouds at 1000 feet AGL, overcast cloud deck at 2000 feet AGL
QC Flag:automated observation with no human augmentation
Text:KHSE 312251Z AUTO 36005KT 10SM OVC028 12/12 A3012 RMK AO2 SLP197 T01170117
Temperature: 11.7°C ( 53°F)
Dewpoint: 11.7°C ( 53°F) [RH = 100%]
Pressure (altimeter):30.12 inches Hg (1020.1 mb) [Sea level pressure: 1019.7 mb]
Winds:from the N (360 degrees) at 6 MPH (5 knots; 2.6 m/s)
Visibility:10 or more sm (16+ km)
Ceiling:2800 feet AGL
Clouds: overcast cloud deck at 2800 feet AGL
QC Flag:automated observation with no human augmentation
Text:KHSE 312214Z AUTO 00000KT 10SM OVC029 12/12 A3010 RMK AO2 T01220122
Temperature: 12.2°C ( 54°F)
Dewpoint: 12.2°C ( 54°F) [RH = 100%]
Pressure (altimeter):30.10 inches Hg (1019.4 mb)
Winds:calm
Visibility:10 or more sm (16+ km)
Ceiling:2900 feet AGL
Clouds: overcast cloud deck at 2900 feet AGL
QC Flag:automated observation with no human augmentation
Text:KHSE 312151Z AUTO 00000KT 10SM FEW002 SCT031 BKN080 12/12 A3010 RMK AO2 RAE10 SLP192 P0000 T01220122
Temperature: 12.2°C ( 54°F)
Dewpoint: 12.2°C ( 54°F) [RH = 100%]
Pressure (altimeter):30.10 inches Hg (1019.4 mb) [Sea level pressure: 1019.2 mb]
Winds:calm
Visibility:10 or more sm (16+ km)
Ceiling:8000 feet AGL
Clouds: few clouds at 200 feet AGL, scattered clouds at 3100 feet AGL, broken clouds at 8000 feet AGL
QC Flag:automated observation with no human augmentation
Text:KHSE 312049Z AUTO 00000KT 10SM -RA SCT003 SCT023 OVC039 12/12 A3013 RMK AO2 RAB08 SLP202 P0000 60000 T01170117 55011
Temperature: 11.7°C ( 53°F)
Dewpoint: 11.7°C ( 53°F) [RH = 100%]
Pressure (altimeter):30.13 inches Hg (1020.4 mb) [Sea level pressure: 1020.2 mb]
Winds:calm
Visibility:10 or more sm (16+ km)
Ceiling:3900 feet AGL
Clouds: scattered clouds at 300 feet AGL, scattered clouds at 2300 feet AGL, overcast cloud deck at 3900 feet AGL
Weather:-RA (light rain)
QC Flag:automated observation with no human augmentation
Text:KHSE 312048Z AUTO 00000KT 10SM -RA SCT003 BKN030 OVC039 12/12 A3013 RMK AO2 RAB08 P0000
Temperature: 12.0°C ( 54°F)
Dewpoint: 12.0°C ( 54°F) [RH = 100%]
Pressure (altimeter):30.13 inches Hg (1020.4 mb)
Winds:calm
Visibility:10 or more sm (16+ km)
Ceiling:3000 feet AGL
Clouds: scattered clouds at 300 feet AGL, broken clouds at 3000 feet AGL, overcast cloud deck at 3900 feet AGL
Weather:-RA (light rain)
QC Flag:automated observation with no human augmentation
Text:KHSE 312023Z AUTO 00000KT 10SM -RA BKN003 OVC026 12/12 A3012 RMK AO2 RAB08 P0000 T01170117
Temperature: 11.7°C ( 53°F)
Dewpoint: 11.7°C ( 53°F) [RH = 100%]
Pressure (altimeter):30.12 inches Hg (1020.1 mb)
Winds:calm
Visibility:10 or more sm (16+ km)
Ceiling:300 feet AGL
Clouds: broken clouds at 300 feet AGL, overcast cloud deck at 2600 feet AGL
Weather:-RA (light rain)
QC Flag:automated observation with no human augmentation
Text:KHSE 311951Z AUTO VRB03KT 10SM BKN004 OVC026 12/12 A3012 RMK AO2 RAB06E19 SLP197 P0000 T01220122
Temperature: 12.2°C ( 54°F)
Dewpoint: 12.2°C ( 54°F) [RH = 100%]
Pressure (altimeter):30.12 inches Hg (1020.1 mb) [Sea level pressure: 1019.7 mb]
Winds:variable direction winds at 3 MPH (3 knots; 1.5 m/s)
Visibility:10 or more sm (16+ km)
Ceiling:400 feet AGL
Clouds: broken clouds at 400 feet AGL, overcast cloud deck at 2600 feet AGL
QC Flag:automated observation with no human augmentation
Text:KHSE 311934Z AUTO VRB03KT 10SM OVC005 12/12 A3010 RMK AO2 RAB06E19 P0000 T01220122
Temperature: 12.2°C ( 54°F)
Dewpoint: 12.2°C ( 54°F) [RH = 100%]
Pressure (altimeter):30.10 inches Hg (1019.4 mb)
Winds:variable direction winds at 3 MPH (3 knots; 1.5 m/s)
Visibility:10 or more sm (16+ km)
Ceiling:500 feet AGL
Clouds: overcast cloud deck at 500 feet AGL
QC Flag:automated observation with no human augmentation
Text:KHSE 311851Z AUTO 00000KT 10SM BKN004 OVC029 12/12 A3013 RMK AO2 RAB08E51 SLP204 P0000 T01220122
Temperature: 12.2°C ( 54°F)
Dewpoint: 12.2°C ( 54°F) [RH = 100%]
Pressure (altimeter):30.13 inches Hg (1020.4 mb) [Sea level pressure: 1020.4 mb]
Winds:calm
Visibility:10 or more sm (16+ km)
Ceiling:400 feet AGL
Clouds: broken clouds at 400 feet AGL, overcast cloud deck at 2900 feet AGL
QC Flag:automated observation with no human augmentation
Text:KHSE 311751Z AUTO VRB03KT 9SM OVC003 12/12 A3016 RMK AO2 SLP214 T01170117 10122 20100 58024
Temperature: 11.7°C ( 53°F)
Dewpoint: 11.7°C ( 53°F) [RH = 100%]
Pressure (altimeter):30.16 inches Hg (1021.4 mb) [Sea level pressure: 1021.4 mb]
Winds:variable direction winds at 3 MPH (3 knots; 1.5 m/s)
Visibility: 9 sm ( 14 km)
Ceiling:300 feet AGL
Clouds: overcast cloud deck at 300 feet AGL
QC Flag:automated observation with no human augmentation
Text:KHSE 311700Z AUTO VRB04KT 3SM BR OVC003 12/12 A3020 RMK AO2 T01170117
Temperature: 11.7°C ( 53°F)
Dewpoint: 11.7°C ( 53°F) [RH = 100%]
Pressure (altimeter):30.20 inches Hg (1022.8 mb)
Winds:variable direction winds at 5 MPH (4 knots; 2.1 m/s)
Visibility: 3 sm ( 5 km)
Ceiling:300 feet AGL
Clouds: overcast cloud deck at 300 feet AGL
Weather:BR (mist)
QC Flag:automated observation with no human augmentation
Text:KHSE 311651Z AUTO 32004KT 1 3/4SM BR OVC003 12/12 A3021 RMK AO2 VIS 1 1/4V2 1/2 SLP229 T01170117
Temperature: 11.7°C ( 53°F)
Dewpoint: 11.7°C ( 53°F) [RH = 100%]
Pressure (altimeter):30.21 inches Hg (1023.1 mb) [Sea level pressure: 1022.9 mb]
Winds:from the NW (320 degrees) at 5 MPH (4 knots; 2.1 m/s)
Visibility: 1.75 sm ( 2.82 km)
Ceiling:300 feet AGL
Clouds: overcast cloud deck at 300 feet AGL
Weather:BR (mist)
QC Flag:automated observation with no human augmentation
Text:KHSE 311631Z AUTO 30005KT 1 1/2SM BR OVC002 12/12 A3023 RMK AO2 T01170117
Temperature: 11.7°C ( 53°F)
Dewpoint: 11.7°C ( 53°F) [RH = 100%]
Pressure (altimeter):30.23 inches Hg (1023.8 mb)
Winds:from the WNW (300 degrees) at 6 MPH (5 knots; 2.6 m/s)
Visibility: 1.50 sm ( 2.41 km)
Ceiling:200 feet AGL
Clouds: overcast cloud deck at 200 feet AGL
Weather:BR (mist)
QC Flag:automated observation with no human augmentation
Text:KHSE 311601Z AUTO VRB05KT 3/4SM BR OVC002 12/12 A3022 RMK AO2 T01170117
Temperature: 11.7°C ( 53°F)
Dewpoint: 11.7°C ( 53°F) [RH = 100%]
Pressure (altimeter):30.22 inches Hg (1023.5 mb)
Winds:variable direction winds at 6 MPH (5 knots; 2.6 m/s)
Visibility: 0.75 sm ( 1.21 km)
Ceiling:200 feet AGL
Clouds: overcast cloud deck at 200 feet AGL
Weather:BR (mist)
QC Flag:automated observation with no human augmentation
Text:KHSE 311551Z AUTO 34005KT 1SM BR OVC002 12/12 A3023 RMK AO2 SLP235 T01170117
Temperature: 11.7°C ( 53°F)
Dewpoint: 11.7°C ( 53°F) [RH = 100%]
Pressure (altimeter):30.23 inches Hg (1023.8 mb) [Sea level pressure: 1023.5 mb]
Winds:from the NNW (340 degrees) at 6 MPH (5 knots; 2.6 m/s)
Visibility: 1.00 sm ( 1.61 km)
Ceiling:200 feet AGL
Clouds: overcast cloud deck at 200 feet AGL
Weather:BR (mist)
QC Flag:automated observation with no human augmentation
Text:KHSE 311514Z AUTO 29006KT 1/2SM FG OVC002 11/11 A3023 RMK AO2 T01110111
Temperature: 11.1°C ( 52°F)
Dewpoint: 11.1°C ( 52°F) [RH = 100%]
Pressure (altimeter):30.23 inches Hg (1023.8 mb)
Winds:from the WNW (290 degrees) at 7 MPH (6 knots; 3.1 m/s)
Visibility: 0.50 sm ( 0.80 km)
Ceiling:200 feet AGL
Clouds: overcast cloud deck at 200 feet AGL
Weather:FG (fog)
QC Flag:automated observation with no human augmentation
Text:KHSE 311505Z AUTO 30008KT 1 1/4SM BR OVC002 12/12 A3023 RMK AO2 T01170117
Temperature: 11.7°C ( 53°F)
Dewpoint: 11.7°C ( 53°F) [RH = 100%]
Pressure (altimeter):30.23 inches Hg (1023.8 mb)
Winds:from the WNW (300 degrees) at 9 MPH (8 knots; 4.1 m/s)
Visibility: 1.25 sm ( 2.01 km)
Ceiling:200 feet AGL
Clouds: overcast cloud deck at 200 feet AGL
Weather:BR (mist)
QC Flag:automated observation with no human augmentation
Text:KHSE 311459Z AUTO 31006KT 2 1/2SM BR OVC002 12/12 A3024 RMK AO2 T01220122
Temperature: 12.2°C ( 54°F)
Dewpoint: 12.2°C ( 54°F) [RH = 100%]
Pressure (altimeter):30.24 inches Hg (1024.1 mb)
Winds:from the NW (310 degrees) at 7 MPH (6 knots; 3.1 m/s)
Visibility: 2.50 sm ( 4.02 km)
Ceiling:200 feet AGL
Clouds: overcast cloud deck at 200 feet AGL
Weather:BR (mist)
QC Flag:automated observation with no human augmentation
Text:KHSE 311451Z AUTO 31007KT 4SM BR BKN002 12/12 A3023 RMK AO2 SLP237 T01170117 53012
Temperature: 11.7°C ( 53°F)
Dewpoint: 11.7°C ( 53°F) [RH = 100%]
Pressure (altimeter):30.23 inches Hg (1023.8 mb) [Sea level pressure: 1023.7 mb]
Winds:from the NW (310 degrees) at 8 MPH (7 knots; 3.6 m/s)
Visibility: 4 sm ( 6 km)
Ceiling:200 feet AGL
Clouds: broken clouds at 200 feet AGL
Weather:BR (mist)
QC Flag:automated observation with no human augmentation
Text:KHSE 311443Z AUTO VRB04KT 10SM BKN002 12/12 A3022 RMK AO2 T01170117
Temperature: 11.7°C ( 53°F)
Dewpoint: 11.7°C ( 53°F) [RH = 100%]
Pressure (altimeter):30.22 inches Hg (1023.5 mb)
Winds:variable direction winds at 5 MPH (4 knots; 2.1 m/s)
Visibility:10 or more sm (16+ km)
Ceiling:200 feet AGL
Clouds: broken clouds at 200 feet AGL
QC Flag:automated observation with no human augmentation
Text:KHSE 311433Z AUTO 32007KT 10SM SCT002 12/12 A3022 RMK AO2 T01170117
Temperature: 11.7°C ( 53°F)
Dewpoint: 11.7°C ( 53°F) [RH = 100%]
Pressure (altimeter):30.22 inches Hg (1023.5 mb)
Winds:from the NW (320 degrees) at 8 MPH (7 knots; 3.6 m/s)
Visibility:10 or more sm (16+ km)
Ceiling:at least 12,000 feet AGL
Clouds: scattered clouds at 200 feet AGL
QC Flag:automated observation with no human augmentation
Text:KHSE 311351Z AUTO 31005KT 7SM BKN002 OVC011 11/11 A3021 RMK AO2 SLP228 T01110111
Temperature: 11.1°C ( 52°F)
Dewpoint: 11.1°C ( 52°F) [RH = 100%]
Pressure (altimeter):30.21 inches Hg (1023.1 mb) [Sea level pressure: 1022.8 mb]
Winds:from the NW (310 degrees) at 6 MPH (5 knots; 2.6 m/s)
Visibility: 7 sm ( 11 km)
Ceiling:200 feet AGL
Clouds: broken clouds at 200 feet AGL, overcast cloud deck at 1100 feet AGL
QC Flag:automated observation with no human augmentation
Text:KHSE 311328Z AUTO 31005KT 7SM OVC002 11/11 A3020 RMK AO2 T01110111 $
Temperature: 11.1°C ( 52°F)
Dewpoint: 11.1°C ( 52°F) [RH = 100%]
Pressure (altimeter):30.20 inches Hg (1022.8 mb)
Winds:from the NW (310 degrees) at 6 MPH (5 knots; 2.6 m/s)
Visibility: 7 sm ( 11 km)
Ceiling:200 feet AGL
Clouds: overcast cloud deck at 200 feet AGL
QC Flag:automated observation with no human augmentation; SOME DATA ABOVE MAY BE INACCURATE!!!"$" is an indication the sensor requires maintenance.
Text:KHSE 311319Z AUTO 31005KT 2SM BR BKN002 OVC012 11/11 A3020 RMK AO2 T01110111 $
Temperature: 11.1°C ( 52°F)
Dewpoint: 11.1°C ( 52°F) [RH = 100%]
Pressure (altimeter):30.20 inches Hg (1022.8 mb)
Winds:from the NW (310 degrees) at 6 MPH (5 knots; 2.6 m/s)
Visibility: 2.00 sm ( 3.22 km)
Ceiling:200 feet AGL
Clouds: broken clouds at 200 feet AGL, overcast cloud deck at 1200 feet AGL
Weather:BR (mist)
QC Flag:automated observation with no human augmentation; SOME DATA ABOVE MAY BE INACCURATE!!!"$" is an indication the sensor requires maintenance.
Text:KHSE 311313Z AUTO 30005KT 1SM BR OVC002 11/11 A3021 RMK AO2 T01110111 $
Temperature: 11.1°C ( 52°F)
Dewpoint: 11.1°C ( 52°F) [RH = 100%]
Pressure (altimeter):30.21 inches Hg (1023.1 mb)
Winds:from the WNW (300 degrees) at 6 MPH (5 knots; 2.6 m/s)
Visibility: 1.00 sm ( 1.61 km)
Ceiling:200 feet AGL
Clouds: overcast cloud deck at 200 feet AGL
Weather:BR (mist)
QC Flag:automated observation with no human augmentation; SOME DATA ABOVE MAY BE INACCURATE!!!"$" is an indication the sensor requires maintenance.
Text:KHSE 311251Z AUTO 30005KT 1/2SM FG OVC003 11/11 A3021 RMK AO2 SLP228 T01110111 $
Temperature: 11.1°C ( 52°F)
Dewpoint: 11.1°C ( 52°F) [RH = 100%]
Pressure (altimeter):30.21 inches Hg (1023.1 mb) [Sea level pressure: 1022.8 mb]
Winds:from the WNW (300 degrees) at 6 MPH (5 knots; 2.6 m/s)
Visibility: 0.50 sm ( 0.80 km)
Ceiling:300 feet AGL
Clouds: overcast cloud deck at 300 feet AGL
Weather:FG (fog)
QC Flag:automated observation with no human augmentation; SOME DATA ABOVE MAY BE INACCURATE!!!"$" is an indication the sensor requires maintenance.
Text:KHSE 311151Z AUTO 27003KT 3/4SM BR VV003 10/10 A3020 RMK AO2 SLP226 70059 T01000100 10100 20094 53015
Temperature: 10.0°C ( 50°F)
Dewpoint: 10.0°C ( 50°F) [RH = 100%]
Pressure (altimeter):30.20 inches Hg (1022.8 mb) [Sea level pressure: 1022.6 mb]
Winds:from the W (270 degrees) at 3 MPH (3 knots; 1.5 m/s)
Visibility: 0.75 sm ( 1.21 km)
Ceiling:indefinite ceiling with vertical visibility of 300 feet AGL
Clouds:obscured sky
Weather:BR (mist)
QC Flag:automated observation with no human augmentation
Text:KHSE 311051Z AUTO 29004KT 3/4SM BR VV003 09/09 A3019 RMK AO2 SLP222 T00940094
Temperature: 9.4°C ( 49°F)
Dewpoint: 9.4°C ( 49°F) [RH = 100%]
Pressure (altimeter):30.19 inches Hg (1022.4 mb) [Sea level pressure: 1022.2 mb]
Winds:from the WNW (290 degrees) at 5 MPH (4 knots; 2.1 m/s)
Visibility: 0.75 sm ( 1.21 km)
Ceiling:indefinite ceiling with vertical visibility of 300 feet AGL
Clouds:obscured sky
Weather:BR (mist)
QC Flag:automated observation with no human augmentation
Text:KHSE 311006Z AUTO 27004KT 1/2SM FG VV002 10/10 A3017 RMK AO2 T01000100
Temperature: 10.0°C ( 50°F)
Dewpoint: 10.0°C ( 50°F) [RH = 100%]
Pressure (altimeter):30.17 inches Hg (1021.8 mb)
Winds:from the W (270 degrees) at 5 MPH (4 knots; 2.1 m/s)
Visibility: 0.50 sm ( 0.80 km)
Ceiling:indefinite ceiling with vertical visibility of 200 feet AGL
Clouds:obscured sky
Weather:FG (fog)
QC Flag:automated observation with no human augmentation
Text:KHSE 310951Z AUTO 00000KT 1/4SM FG VV002 09/09 A3016 RMK AO2 SLP213 T00940094
Temperature: 9.4°C ( 49°F)
Dewpoint: 9.4°C ( 49°F) [RH = 100%]
Pressure (altimeter):30.16 inches Hg (1021.4 mb) [Sea level pressure: 1021.3 mb]
Winds:calm
Visibility: 0.25 sm ( 0.40 km)
Ceiling:indefinite ceiling with vertical visibility of 200 feet AGL
Clouds:obscured sky
Weather:FG (fog)
QC Flag:automated observation with no human augmentation
Text:KHSE 310942Z AUTO 00000KT 1/2SM FG VV002 09/09 A3017 RMK AO2 T00940094
Temperature: 9.4°C ( 49°F)
Dewpoint: 9.4°C ( 49°F) [RH = 100%]
Pressure (altimeter):30.17 inches Hg (1021.8 mb)
Winds:calm
Visibility: 0.50 sm ( 0.80 km)
Ceiling:indefinite ceiling with vertical visibility of 200 feet AGL
Clouds:obscured sky
Weather:FG (fog)
QC Flag:automated observation with no human augmentation
Text:KHSE 310932Z AUTO 30003KT 1/4SM FG VV002 10/10 A3017 RMK AO2 T01000100
Temperature: 10.0°C ( 50°F)
Dewpoint: 10.0°C ( 50°F) [RH = 100%]
Pressure (altimeter):30.17 inches Hg (1021.8 mb)
Winds:from the WNW (300 degrees) at 3 MPH (3 knots; 1.5 m/s)
Visibility: 0.25 sm ( 0.40 km)
Ceiling:indefinite ceiling with vertical visibility of 200 feet AGL
Clouds:obscured sky
Weather:FG (fog)
QC Flag:automated observation with no human augmentation
Text:KHSE 310851Z AUTO 00000KT 1/2SM FG VV002 10/10 A3016 RMK AO2 SLP211 T01000100 58005
Temperature: 10.0°C ( 50°F)
Dewpoint: 10.0°C ( 50°F) [RH = 100%]
Pressure (altimeter):30.16 inches Hg (1021.4 mb) [Sea level pressure: 1021.1 mb]
Winds:calm
Visibility: 0.50 sm ( 0.80 km)
Ceiling:indefinite ceiling with vertical visibility of 200 feet AGL
Clouds:obscured sky
Weather:FG (fog)
QC Flag:automated observation with no human augmentation
Text:KHSE 310751Z AUTO 29003KT 1/2SM FG VV002 10/10 A3016 RMK AO2 SLP213 T01000100
Temperature: 10.0°C ( 50°F)
Dewpoint: 10.0°C ( 50°F) [RH = 100%]
Pressure (altimeter):30.16 inches Hg (1021.4 mb) [Sea level pressure: 1021.3 mb]
Winds:from the WNW (290 degrees) at 3 MPH (3 knots; 1.5 m/s)
Visibility: 0.50 sm ( 0.80 km)
Ceiling:indefinite ceiling with vertical visibility of 200 feet AGL
Clouds:obscured sky
Weather:FG (fog)
QC Flag:automated observation with no human augmentation
Text:KHSE 310651Z AUTO VRB04KT 1/2SM FG VV002 10/10 A3017 RMK AO2 SLP216 T01000100
Temperature: 10.0°C ( 50°F)
Dewpoint: 10.0°C ( 50°F) [RH = 100%]
Pressure (altimeter):30.17 inches Hg (1021.8 mb) [Sea level pressure: 1021.6 mb]
Winds:variable direction winds at 5 MPH (4 knots; 2.1 m/s)
Visibility: 0.50 sm ( 0.80 km)
Ceiling:indefinite ceiling with vertical visibility of 200 feet AGL
Clouds:obscured sky
Weather:FG (fog)
QC Flag:automated observation with no human augmentation
Text:KHSE 310646Z AUTO 00000KT 1/2SM FG VV002 10/10 A3017 RMK AO2
Temperature: 10.0°C ( 50°F)
Dewpoint: 10.0°C ( 50°F) [RH = 100%]
Pressure (altimeter):30.17 inches Hg (1021.8 mb)
Winds:calm
Visibility: 0.50 sm ( 0.80 km)
Ceiling:indefinite ceiling with vertical visibility of 200 feet AGL
Clouds:obscured sky
Weather:FG (fog)
QC Flag:automated observation with no human augmentation
Text:KHSE 310638Z AUTO 27004KT 1/4SM FG VV002 10/10 A3017 RMK AO2 T01000100
Temperature: 10.0°C ( 50°F)
Dewpoint: 10.0°C ( 50°F) [RH = 100%]
Pressure (altimeter):30.17 inches Hg (1021.8 mb)
Winds:from the W (270 degrees) at 5 MPH (4 knots; 2.1 m/s)
Visibility: 0.25 sm ( 0.40 km)
Ceiling:indefinite ceiling with vertical visibility of 200 feet AGL
Clouds:obscured sky
Weather:FG (fog)
QC Flag:automated observation with no human augmentation
Text:KHSE 310551Z AUTO VRB04KT 1/2SM FG VV002 09/09 A3017 RMK AO2 SLP217 T00940094 10106 20094 56007
Temperature: 9.4°C ( 49°F)
Dewpoint: 9.4°C ( 49°F) [RH = 100%]
Pressure (altimeter):30.17 inches Hg (1021.8 mb) [Sea level pressure: 1021.7 mb]
Winds:variable direction winds at 5 MPH (4 knots; 2.1 m/s)
Visibility: 0.50 sm ( 0.80 km)
Ceiling:indefinite ceiling with vertical visibility of 200 feet AGL
Clouds:obscured sky
Weather:FG (fog)
QC Flag:automated observation with no human augmentation
Text:KHSE 310533Z AUTO VRB03KT 1/2SM FG VV002 09/09 A3018 RMK AO2 T00940094
Temperature: 9.4°C ( 49°F)
Dewpoint: 9.4°C ( 49°F) [RH = 100%]
Pressure (altimeter):30.18 inches Hg (1022.1 mb)
Winds:variable direction winds at 3 MPH (3 knots; 1.5 m/s)
Visibility: 0.50 sm ( 0.80 km)
Ceiling:indefinite ceiling with vertical visibility of 200 feet AGL
Clouds:obscured sky
Weather:FG (fog)
QC Flag:automated observation with no human augmentation
Text:KHSE 310451Z AUTO 00000KT 1/4SM FG VV002 10/10 A3018 RMK AO2 SLP219 T01000100 401560094
Temperature: 10.0°C ( 50°F)
Dewpoint: 10.0°C ( 50°F) [RH = 100%]
Pressure (altimeter):30.18 inches Hg (1022.1 mb) [Sea level pressure: 1021.9 mb]
Winds:calm
Visibility: 0.25 sm ( 0.40 km)
Ceiling:indefinite ceiling with vertical visibility of 200 feet AGL
Clouds:obscured sky
Weather:FG (fog)
QC Flag:automated observation with no human augmentation
Text:KHSE 310351Z AUTO 01003KT 1/4SM FG VV002 10/10 A3019 RMK AO2 SLP222 T01000100
Temperature: 10.0°C ( 50°F)
Dewpoint: 10.0°C ( 50°F) [RH = 100%]
Pressure (altimeter):30.19 inches Hg (1022.4 mb) [Sea level pressure: 1022.2 mb]
Winds:from the N (10 degrees) at 3 MPH (3 knots; 1.5 m/s)
Visibility: 0.25 sm ( 0.40 km)
Ceiling:indefinite ceiling with vertical visibility of 200 feet AGL
Clouds:obscured sky
Weather:FG (fog)
QC Flag:automated observation with no human augmentation
Text:KHSE 310322Z AUTO VRB03KT 1/4SM FG VV002 10/10 A3019 RMK AO2 T01000100
Temperature: 10.0°C ( 50°F)
Dewpoint: 10.0°C ( 50°F) [RH = 100%]
Pressure (altimeter):30.19 inches Hg (1022.4 mb)
Winds:variable direction winds at 3 MPH (3 knots; 1.5 m/s)
Visibility: 0.25 sm ( 0.40 km)
Ceiling:indefinite ceiling with vertical visibility of 200 feet AGL
Clouds:obscured sky
Weather:FG (fog)
QC Flag:automated observation with no human augmentation
Text:KHSE 310251Z AUTO VRB03KT 3/4SM BR VV002 10/10 A3020 RMK AO2 SLP225 T01000100 53011
Temperature: 10.0°C ( 50°F)
Dewpoint: 10.0°C ( 50°F) [RH = 100%]
Pressure (altimeter):30.20 inches Hg (1022.8 mb) [Sea level pressure: 1022.5 mb]
Winds:variable direction winds at 3 MPH (3 knots; 1.5 m/s)
Visibility: 0.75 sm ( 1.21 km)
Ceiling:indefinite ceiling with vertical visibility of 200 feet AGL
Clouds:obscured sky
Weather:BR (mist)
QC Flag:automated observation with no human augmentation
Text:KHSE 310214Z AUTO 01005KT 3/4SM BR VV002 10/10 A3019 RMK AO2 T01000100
Temperature: 10.0°C ( 50°F)
Dewpoint: 10.0°C ( 50°F) [RH = 100%]
Pressure (altimeter):30.19 inches Hg (1022.4 mb)
Winds:from the N (10 degrees) at 6 MPH (5 knots; 2.6 m/s)
Visibility: 0.75 sm ( 1.21 km)
Ceiling:indefinite ceiling with vertical visibility of 200 feet AGL
Clouds:obscured sky
Weather:BR (mist)
QC Flag:automated observation with no human augmentation
Text:KHSE 310151Z AUTO 01007KT 330V040 1SM BR VV002 10/10 A3019 RMK AO2 SLP221 T01000100
Temperature: 10.0°C ( 50°F)
Dewpoint: 10.0°C ( 50°F) [RH = 100%]
Pressure (altimeter):30.19 inches Hg (1022.4 mb) [Sea level pressure: 1022.1 mb]
Winds:from the N (10 degrees) at 8 MPH (7 knots; 3.6 m/s)
Visibility: 1.00 sm ( 1.61 km)
Ceiling:indefinite ceiling with vertical visibility of 200 feet AGL
Clouds:obscured sky
Weather:BR (mist)
QC Flag:automated observation with no human augmentation
Text:KHSE 310137Z AUTO VRB05KT 3/4SM BR VV002 10/10 A3017 RMK AO2 T01000100
Temperature: 10.0°C ( 50°F)
Dewpoint: 10.0°C ( 50°F) [RH = 100%]
Pressure (altimeter):30.17 inches Hg (1021.8 mb)
Winds:variable direction winds at 6 MPH (5 knots; 2.6 m/s)
Visibility: 0.75 sm ( 1.21 km)
Ceiling:indefinite ceiling with vertical visibility of 200 feet AGL
Clouds:obscured sky
Weather:BR (mist)
QC Flag:automated observation with no human augmentation
Text:KHSE 310128Z AUTO VRB06KT 1SM BR VV002 10/10 A3017 RMK AO2 T01000100
Temperature: 10.0°C ( 50°F)
Dewpoint: 10.0°C ( 50°F) [RH = 100%]
Pressure (altimeter):30.17 inches Hg (1021.8 mb)
Winds:variable direction winds at 7 MPH (6 knots; 3.1 m/s)
Visibility: 1.00 sm ( 1.61 km)
Ceiling:indefinite ceiling with vertical visibility of 200 feet AGL
Clouds:obscured sky
Weather:BR (mist)
QC Flag:automated observation with no human augmentation
Text:KHSE 310051Z AUTO VRB05KT 3/4SM BR VV002 10/10 A3017 RMK AO2 SLP216 T01000100
Temperature: 10.0°C ( 50°F)
Dewpoint: 10.0°C ( 50°F) [RH = 100%]
Pressure (altimeter):30.17 inches Hg (1021.8 mb) [Sea level pressure: 1021.6 mb]
Winds:variable direction winds at 6 MPH (5 knots; 2.6 m/s)
Visibility: 0.75 sm ( 1.21 km)
Ceiling:indefinite ceiling with vertical visibility of 200 feet AGL
Clouds:obscured sky
Weather:BR (mist)
QC Flag:automated observation with no human augmentation
Text:KHSE 302351Z AUTO VRB04KT 3/4SM BR VV002 11/11 A3016 RMK AO2 SLP214 60000 T01060106 10128 20106 53012
Temperature: 10.6°C ( 51°F)
Dewpoint: 10.6°C ( 51°F) [RH = 100%]
Pressure (altimeter):30.16 inches Hg (1021.4 mb) [Sea level pressure: 1021.4 mb]
Winds:variable direction winds at 5 MPH (4 knots; 2.1 m/s)
Visibility: 0.75 sm ( 1.21 km)
Ceiling:indefinite ceiling with vertical visibility of 200 feet AGL
Clouds:obscured sky
Weather:BR (mist)
QC Flag:automated observation with no human augmentation
Text:KHSE 302338Z AUTO VRB03KT 1/2SM FG VV002 11/11 A3016 RMK AO2 T01060106
Temperature: 10.6°C ( 51°F)
Dewpoint: 10.6°C ( 51°F) [RH = 100%]
Pressure (altimeter):30.16 inches Hg (1021.4 mb)
Winds:variable direction winds at 3 MPH (3 knots; 1.5 m/s)
Visibility: 0.50 sm ( 0.80 km)
Ceiling:indefinite ceiling with vertical visibility of 200 feet AGL
Clouds:obscured sky
Weather:FG (fog)
QC Flag:automated observation with no human augmentation
Text:KHSE 302312Z AUTO 01004KT 1/4SM FG VV002 11/11 A3015 RMK AO2 T01060106
Temperature: 10.6°C ( 51°F)
Dewpoint: 10.6°C ( 51°F) [RH = 100%]
Pressure (altimeter):30.15 inches Hg (1021.1 mb)
Winds:from the N (10 degrees) at 5 MPH (4 knots; 2.1 m/s)
Visibility: 0.25 sm ( 0.40 km)
Ceiling:indefinite ceiling with vertical visibility of 200 feet AGL
Clouds:obscured sky
Weather:FG (fog)
QC Flag:automated observation with no human augmentation
Text:KHSE 302251Z AUTO VRB03KT 1/2SM FG VV002 11/11 A3015 RMK AO2 SLP208 T01110111
Temperature: 11.1°C ( 52°F)
Dewpoint: 11.1°C ( 52°F) [RH = 100%]
Pressure (altimeter):30.15 inches Hg (1021.1 mb) [Sea level pressure: 1020.8 mb]
Winds:variable direction winds at 3 MPH (3 knots; 1.5 m/s)
Visibility: 0.50 sm ( 0.80 km)
Ceiling:indefinite ceiling with vertical visibility of 200 feet AGL
Clouds:obscured sky
Weather:FG (fog)
QC Flag:automated observation with no human augmentation
Text:KHSE 302230Z AUTO 35004KT 3/4SM BR OVC002 11/11 A3014 RMK AO2 T01110111
Temperature: 11.1°C ( 52°F)
Dewpoint: 11.1°C ( 52°F) [RH = 100%]
Pressure (altimeter):30.14 inches Hg (1020.7 mb)
Winds:from the N (350 degrees) at 5 MPH (4 knots; 2.1 m/s)
Visibility: 0.75 sm ( 1.21 km)
Ceiling:200 feet AGL
Clouds: overcast cloud deck at 200 feet AGL
Weather:BR (mist)
QC Flag:automated observation with no human augmentation
Text:KHSE 302224Z AUTO VRB03KT 1 1/2SM BR OVC002 12/12 A3014 RMK AO2 T01170117
Temperature: 11.7°C ( 53°F)
Dewpoint: 11.7°C ( 53°F) [RH = 100%]
Pressure (altimeter):30.14 inches Hg (1020.7 mb)
Winds:variable direction winds at 3 MPH (3 knots; 1.5 m/s)
Visibility: 1.50 sm ( 2.41 km)
Ceiling:200 feet AGL
Clouds: overcast cloud deck at 200 feet AGL
Weather:BR (mist)
QC Flag:automated observation with no human augmentation
Text:KHSE 302213Z AUTO VRB03KT 1 1/4SM BR OVC002 12/12 A3014 RMK AO2 T01170117
Temperature: 11.7°C ( 53°F)
Dewpoint: 11.7°C ( 53°F) [RH = 100%]
Pressure (altimeter):30.14 inches Hg (1020.7 mb)
Winds:variable direction winds at 3 MPH (3 knots; 1.5 m/s)
Visibility: 1.25 sm ( 2.01 km)
Ceiling:200 feet AGL
Clouds: overcast cloud deck at 200 feet AGL
Weather:BR (mist)
QC Flag:automated observation with no human augmentation
Text:KHSE 302207Z AUTO VRB03KT 2SM BR OVC002 12/12 A3013 RMK AO2 T01170117
Temperature: 11.7°C ( 53°F)
Dewpoint: 11.7°C ( 53°F) [RH = 100%]
Pressure (altimeter):30.13 inches Hg (1020.4 mb)
Winds:variable direction winds at 3 MPH (3 knots; 1.5 m/s)
Visibility: 2.00 sm ( 3.22 km)
Ceiling:200 feet AGL
Clouds: overcast cloud deck at 200 feet AGL
Weather:BR (mist)
QC Flag:automated observation with no human augmentation
Text:KHSE 302151Z AUTO 01005KT 8SM BKN003 OVC007 12/12 A3013 RMK AO2 CIG 002V006 SLP202 T01220122
Temperature: 12.2°C ( 54°F)
Dewpoint: 12.2°C ( 54°F) [RH = 100%]
Pressure (altimeter):30.13 inches Hg (1020.4 mb) [Sea level pressure: 1020.2 mb]
Winds:from the N (10 degrees) at 6 MPH (5 knots; 2.6 m/s)
Visibility: 8 sm ( 13 km)
Ceiling:300 feet AGL
Clouds: broken clouds at 300 feet AGL, overcast cloud deck at 700 feet AGL
QC Flag:automated observation with no human augmentation
Text:KHSE 302129Z AUTO VRB04KT 10SM OVC007 12/12 A3013 RMK AO2 CIG 002V008 T01220122
Temperature: 12.2°C ( 54°F)
Dewpoint: 12.2°C ( 54°F) [RH = 100%]
Pressure (altimeter):30.13 inches Hg (1020.4 mb)
Winds:variable direction winds at 5 MPH (4 knots; 2.1 m/s)
Visibility:10 or more sm (16+ km)
Ceiling:700 feet AGL
Clouds: overcast cloud deck at 700 feet AGL
QC Flag:automated observation with no human augmentation
Text:KHSE 302051Z AUTO VRB05KT 10SM OVC002 12/12 A3012 RMK AO2 SLP200 60000 T01220122 53003
Temperature: 12.2°C ( 54°F)
Dewpoint: 12.2°C ( 54°F) [RH = 100%]
Pressure (altimeter):30.12 inches Hg (1020.1 mb) [Sea level pressure: 1020.0 mb]
Winds:variable direction winds at 6 MPH (5 knots; 2.6 m/s)
Visibility:10 or more sm (16+ km)
Ceiling:200 feet AGL
Clouds: overcast cloud deck at 200 feet AGL
QC Flag:automated observation with no human augmentation
Text:KHSE 302024Z AUTO VRB06KT 6SM BR OVC002 12/12 A3011 RMK AO2 T01220122
Temperature: 12.2°C ( 54°F)
Dewpoint: 12.2°C ( 54°F) [RH = 100%]
Pressure (altimeter):30.11 inches Hg (1019.7 mb)
Winds:variable direction winds at 7 MPH (6 knots; 3.1 m/s)
Visibility: 6 sm ( 10 km)
Ceiling:200 feet AGL
Clouds: overcast cloud deck at 200 feet AGL
Weather:BR (mist)
QC Flag:automated observation with no human augmentation
Text:KHSE 302016Z AUTO VRB05KT 2SM BR OVC002 12/12 A3011 RMK AO2 VIS 3/4V5 T01220122
Temperature: 12.2°C ( 54°F)
Dewpoint: 12.2°C ( 54°F) [RH = 100%]
Pressure (altimeter):30.11 inches Hg (1019.7 mb)
Winds:variable direction winds at 6 MPH (5 knots; 2.6 m/s)
Visibility: 2.00 sm ( 3.22 km)
Ceiling:200 feet AGL
Clouds: overcast cloud deck at 200 feet AGL
Weather:BR (mist)
QC Flag:automated observation with no human augmentation
Text:KHSE 302013Z AUTO VRB05KT 1 1/4SM BR OVC002 12/12 A3010 RMK AO2 T01220122
Temperature: 12.2°C ( 54°F)
Dewpoint: 12.2°C ( 54°F) [RH = 100%]
Pressure (altimeter):30.10 inches Hg (1019.4 mb)
Winds:variable direction winds at 6 MPH (5 knots; 2.6 m/s)
Visibility: 1.25 sm ( 2.01 km)
Ceiling:200 feet AGL
Clouds: overcast cloud deck at 200 feet AGL
Weather:BR (mist)
QC Flag:automated observation with no human augmentation
Text:KHSE 302005Z AUTO VRB05KT 1 3/4SM BR OVC002 12/12 A3010 RMK AO2 T01220122
Temperature: 12.2°C ( 54°F)
Dewpoint: 12.2°C ( 54°F) [RH = 100%]
Pressure (altimeter):30.10 inches Hg (1019.4 mb)
Winds:variable direction winds at 6 MPH (5 knots; 2.6 m/s)
Visibility: 1.75 sm ( 2.82 km)
Ceiling:200 feet AGL
Clouds: overcast cloud deck at 200 feet AGL
Weather:BR (mist)
QC Flag:automated observation with no human augmentation
Text:KHSE 301951Z AUTO 35005KT 10SM BKN002 OVC006 12/12 A3010 RMK AO2 CIG 002V005 SLP191 T01220122
Temperature: 12.2°C ( 54°F)
Dewpoint: 12.2°C ( 54°F) [RH = 100%]
Pressure (altimeter):30.10 inches Hg (1019.4 mb) [Sea level pressure: 1019.1 mb]
Winds:from the N (350 degrees) at 6 MPH (5 knots; 2.6 m/s)
Visibility:10 or more sm (16+ km)
Ceiling:200 feet AGL
Clouds: broken clouds at 200 feet AGL, overcast cloud deck at 600 feet AGL
QC Flag:automated observation with no human augmentation
Text:KHSE 301920Z AUTO VRB04KT 10SM OVC005 13/ A3009 RMK AO2 CIG 003V007 T0128
Temperature: 12.8°C ( 55°F)
Pressure (altimeter):30.09 inches Hg (1019.0 mb)
Winds:variable direction winds at 5 MPH (4 knots; 2.1 m/s)
Visibility:10 or more sm (16+ km)
Ceiling:500 feet AGL
Clouds: overcast cloud deck at 500 feet AGL
QC Flag:automated observation with no human augmentation
Text:KHSE 301851Z AUTO 35005KT 10SM OVC002 12/ A3010 RMK AO2 RAB02E36 SLP191 P0000 T0122
Temperature: 12.2°C ( 54°F)
Pressure (altimeter):30.10 inches Hg (1019.4 mb) [Sea level pressure: 1019.1 mb]
Winds:from the N (350 degrees) at 6 MPH (5 knots; 2.6 m/s)
Visibility:10 or more sm (16+ km)
Ceiling:200 feet AGL
Clouds: overcast cloud deck at 200 feet AGL
QC Flag:automated observation with no human augmentation
Text:KHSE 301751Z AUTO VRB05KT 10SM BKN003 OVC008 12/ A3011 RMK AO2 SLP196 60059 T0122 10150 20117 56016
Temperature: 12.2°C ( 54°F)
Pressure (altimeter):30.11 inches Hg (1019.7 mb) [Sea level pressure: 1019.6 mb]
Winds:variable direction winds at 6 MPH (5 knots; 2.6 m/s)
Visibility:10 or more sm (16+ km)
Ceiling:300 feet AGL
Clouds: broken clouds at 300 feet AGL, overcast cloud deck at 800 feet AGL
QC Flag:automated observation with no human augmentation
Text:KHSE 301719Z AUTO VRB05KT 9SM SCT002 OVC007 13/ A3012 RMK AO2 T0128
Temperature: 12.8°C ( 55°F)
Pressure (altimeter):30.12 inches Hg (1020.1 mb)
Winds:variable direction winds at 6 MPH (5 knots; 2.6 m/s)
Visibility: 9 sm ( 14 km)
Ceiling:700 feet AGL
Clouds: scattered clouds at 200 feet AGL, overcast cloud deck at 700 feet AGL
QC Flag:automated observation with no human augmentation
Text:KHSE 301651Z AUTO VRB05KT 7SM OVC003 12/ A3013 RMK AO2 CIG 002V005 SLP202 T0122
Temperature: 12.2°C ( 54°F)
Pressure (altimeter):30.13 inches Hg (1020.4 mb) [Sea level pressure: 1020.2 mb]
Winds:variable direction winds at 6 MPH (5 knots; 2.6 m/s)
Visibility: 7 sm ( 11 km)
Ceiling:300 feet AGL
Clouds: overcast cloud deck at 300 feet AGL
QC Flag:automated observation with no human augmentation
Text:KHSE 301633Z AUTO 35005KT 10SM BKN004 BKN026 OVC080 13/ A3013 RMK AO2 T0133
Temperature: 13.3°C ( 56°F)
Pressure (altimeter):30.13 inches Hg (1020.4 mb)
Winds:from the N (350 degrees) at 6 MPH (5 knots; 2.6 m/s)
Visibility:10 or more sm (16+ km)
Ceiling:400 feet AGL
Clouds: broken clouds at 400 feet AGL, broken clouds at 2600 feet AGL, overcast cloud deck at 8000 feet AGL
QC Flag:automated observation with no human augmentation
Text:KHSE 301603Z AUTO VRB05KT 10SM FEW004 SCT025 BKN080 14/ A3014 RMK AO2 T0144
Temperature: 14.4°C ( 58°F)
Pressure (altimeter):30.14 inches Hg (1020.7 mb)
Winds:variable direction winds at 6 MPH (5 knots; 2.6 m/s)
Visibility:10 or more sm (16+ km)
Ceiling:8000 feet AGL
Clouds: few clouds at 400 feet AGL, scattered clouds at 2500 feet AGL, broken clouds at 8000 feet AGL
QC Flag:automated observation with no human augmentation
Text:KHSE 301551Z AUTO VRB05KT 10SM SCT004 BKN026 14/ A3014 RMK AO2 RAB20E33 SLP206 P0000 T0139
Temperature: 13.9°C ( 57°F)
Pressure (altimeter):30.14 inches Hg (1020.7 mb) [Sea level pressure: 1020.6 mb]
Winds:variable direction winds at 6 MPH (5 knots; 2.6 m/s)
Visibility:10 or more sm (16+ km)
Ceiling:2600 feet AGL
Clouds: scattered clouds at 400 feet AGL, broken clouds at 2600 feet AGL
QC Flag:automated observation with no human augmentation